createdAt,value
2019-01-14T00:01:58.814Z,81.59
2019-01-14T00:04:30.592Z,81.45
2019-01-14T00:07:02.313Z,81.45
2019-01-14T00:09:34.000Z,81.26
2019-01-14T00:12:05.724Z,81.10
2019-01-14T00:14:38.405Z,81.27
2019-01-14T00:17:10.287Z,81.78
2019-01-14T00:19:41.854Z,81.21
2019-01-14T00:22:13.701Z,81.21
2019-01-14T00:24:45.292Z,80.81
2019-01-14T00:27:16.744Z,81.11
2019-01-14T00:29:48.320Z,81.72
2019-01-14T00:32:20.013Z,81.15
2019-01-14T00:34:51.743Z,81.15
2019-01-14T00:37:23.454Z,81.93
2019-01-14T00:39:54.903Z,81.92
2019-01-14T00:42:27.241Z,81.11
2019-01-14T00:44:58.757Z,81.11
2019-01-14T00:47:30.609Z,80.90
2019-01-14T00:50:02.329Z,80.93
2019-01-14T00:52:34.430Z,80.93
2019-01-14T00:55:06.400Z,81.28
2019-01-14T00:57:38.464Z,81.14
2019-01-14T01:00:23.077Z,81.42
2019-01-14T01:02:56.203Z,81.42
2019-01-14T01:05:27.551Z,81.36
2019-01-14T01:07:59.089Z,80.97
2019-01-14T01:10:30.828Z,80.97
2019-01-14T01:13:02.780Z,80.97
2019-01-14T01:15:34.556Z,81.07
2019-01-14T01:18:06.596Z,81.12
2019-01-14T01:20:38.242Z,81.12
2019-01-14T01:23:10.222Z,81.06
2019-01-14T01:25:41.575Z,81.01
2019-01-14T01:28:14.571Z,81.01
2019-01-14T01:30:46.318Z,81.25
2019-01-14T01:33:18.084Z,81.34
2019-01-14T01:35:49.416Z,80.90
2019-01-14T01:38:21.316Z,80.88
2019-01-14T01:40:52.730Z,80.71
2019-01-14T01:43:23.998Z,80.71
2019-01-14T01:45:55.471Z,80.71
2019-01-14T01:48:27.155Z,80.54
2019-01-14T01:50:58.313Z,80.54
2019-01-14T01:53:31.423Z,81.98
2019-01-14T01:56:02.731Z,81.98
2019-01-14T01:58:34.265Z,80.67
2019-01-14T02:01:06.438Z,80.67
2019-01-14T02:03:38.370Z,80.54
2019-01-14T02:06:10.114Z,80.35
2019-01-14T02:08:41.652Z,80.35
2019-01-14T02:11:13.566Z,73.37
2019-01-14T02:13:45.120Z,71.38
2019-01-14T02:16:17.664Z,70.96
2019-01-14T02:18:49.058Z,70.96
2019-01-14T02:21:20.419Z,72.01
2019-01-14T02:23:52.036Z,72.01
2019-01-14T02:26:23.979Z,72.78
2019-01-14T02:28:55.680Z,72.32
2019-01-14T02:31:27.594Z,72.39
2019-01-14T02:33:59.448Z,72.39
2019-01-14T02:36:30.754Z,72.21
2019-01-14T02:39:02.291Z,71.89
2019-01-14T02:41:35.259Z,71.79
2019-01-14T02:44:06.811Z,71.98
2019-01-14T02:46:38.158Z,72.04
2019-01-14T02:49:09.984Z,71.59
2019-01-14T02:51:41.393Z,71.59
2019-01-14T02:54:15.639Z,71.76
2019-01-14T02:56:47.186Z,69.85
2019-01-14T02:59:19.788Z,69.06
2019-01-14T03:01:51.186Z,68.97
2019-01-14T03:04:22.732Z,67.99
2019-01-14T03:06:57.965Z,67.99
2019-01-14T03:09:27.029Z,68.23
2019-01-14T03:11:58.248Z,68.13
2019-01-14T03:14:29.792Z,68.13
2019-01-14T03:17:01.586Z,67.99
2019-01-14T03:19:33.032Z,67.61
2019-01-14T03:22:04.273Z,67.61
2019-01-14T03:24:35.843Z,67.45
2019-01-14T03:27:07.327Z,69.99
2019-01-14T03:29:39.581Z,70.19
2019-01-14T03:32:11.489Z,70.11
2019-01-14T03:34:44.239Z,69.70
2019-01-14T03:37:15.583Z,69.70
2019-01-14T03:39:46.978Z,69.53
2019-01-14T03:42:18.499Z,69.59
2019-01-14T03:44:50.018Z,69.85
2019-01-14T03:47:21.384Z,70.02
2019-01-14T03:49:53.096Z,70.02
2019-01-14T03:52:24.587Z,69.66
2019-01-14T03:54:56.202Z,70.18
2019-01-14T03:57:27.636Z,69.83
2019-01-14T03:59:59.364Z,69.83
2019-01-14T04:02:30.865Z,69.29
2019-01-14T04:05:02.699Z,69.29
2019-01-14T04:07:34.299Z,69.29
2019-01-14T04:10:07.146Z,68.94
2019-01-14T04:12:38.760Z,68.88
2019-01-14T04:15:11.560Z,68.41
2019-01-14T04:17:43.220Z,68.41
2019-01-14T04:20:16.877Z,67.82
2019-01-14T04:22:48.843Z,67.82
2019-01-14T04:25:20.341Z,66.92
2019-01-14T04:27:52.101Z,66.92
2019-01-14T04:30:25.534Z,67.80
2019-01-14T04:32:57.003Z,67.65
2019-01-14T04:35:28.801Z,67.65
2019-01-14T04:38:00.409Z,67.41
2019-01-14T04:40:32.005Z,66.41
2019-01-14T04:43:04.170Z,65.65
2019-01-14T04:45:35.709Z,65.65
2019-01-14T04:48:08.489Z,65.26
2019-01-14T04:50:39.911Z,65.26
2019-01-14T04:53:12.243Z,64.54
2019-01-14T04:55:43.637Z,64.54
2019-01-14T04:58:15.317Z,64.89
2019-01-14T05:00:46.972Z,64.89
2019-01-14T05:03:18.537Z,63.17
2019-01-14T05:05:49.927Z,63.63
2019-01-14T05:08:21.640Z,63.49
2019-01-14T05:10:53.080Z,63.49
2019-01-14T05:13:24.807Z,63.48
2019-01-14T05:15:56.185Z,63.48
2019-01-14T05:18:27.654Z,64.13
2019-01-14T05:20:59.057Z,61.68
2019-01-14T05:23:31.555Z,61.87
2019-01-14T05:26:03.208Z,61.87
2019-01-14T05:28:35.189Z,64.60
2019-01-14T05:31:06.749Z,64.60
2019-01-14T05:33:38.330Z,62.92
2019-01-14T05:36:10.005Z,62.92
2019-01-14T05:38:41.340Z,63.81
2019-01-14T05:41:13.033Z,63.81
2019-01-14T05:43:44.439Z,59.51
2019-01-14T05:46:15.757Z,59.77
2019-01-14T05:48:47.149Z,58.76
2019-01-14T05:51:18.946Z,59.65
2019-01-14T05:53:50.823Z,58.91
2019-01-14T05:56:23.223Z,58.91
2019-01-14T05:58:54.631Z,56.89
2019-01-14T06:01:26.157Z,56.36
2019-01-14T06:03:57.692Z,57.55
2019-01-14T06:06:29.184Z,57.55
2019-01-14T06:09:00.462Z,56.11
2019-01-14T06:11:32.082Z,56.11
2019-01-14T06:14:03.474Z,53.05
2019-01-14T06:16:34.611Z,53.16
2019-01-14T06:19:06.219Z,53.16
2019-01-14T06:21:37.523Z,54.36
2019-01-14T06:24:09.421Z,52.83
2019-01-14T06:26:40.883Z,52.83
2019-01-14T06:29:12.574Z,54.03
2019-01-14T06:31:43.920Z,53.66
2019-01-14T06:34:15.417Z,52.83
2019-01-14T06:36:47.094Z,53.79
2019-01-14T06:39:18.784Z,53.79
2019-01-14T06:41:50.205Z,54.46
2019-01-14T06:44:21.889Z,52.49
2019-01-14T06:46:53.316Z,52.49
2019-01-14T06:49:28.629Z,52.96
2019-01-14T06:52:09.599Z,50.42
2019-01-14T06:54:41.022Z,50.42
2019-01-14T06:57:12.412Z,51.25
2019-01-14T06:59:50.872Z,48.27
2019-01-14T07:02:22.688Z,49.05
2019-01-14T07:04:54.094Z,48.55
2019-01-14T07:07:25.512Z,48.82
2019-01-14T07:09:57.101Z,48.59
2019-01-14T07:12:28.772Z,48.59
2019-01-14T07:15:00.116Z,48.47
2019-01-14T07:17:32.816Z,45.75
2019-01-14T07:20:05.280Z,44.58
2019-01-14T07:22:36.826Z,48.29
2019-01-14T07:25:08.901Z,46.70
2019-01-14T07:27:43.422Z,46.70
2019-01-14T07:30:16.952Z,46.50
2019-01-14T07:32:48.529Z,45.23
2019-01-14T07:35:20.203Z,44.67
2019-01-14T07:37:52.028Z,45.48
2019-01-14T07:40:23.385Z,45.48
2019-01-14T07:42:54.870Z,44.66
2019-01-14T07:45:26.269Z,44.66
2019-01-14T07:47:57.820Z,44.74
2019-01-14T07:50:29.913Z,45.52
2019-01-14T07:53:01.459Z,45.52
2019-01-14T07:55:32.918Z,44.15
2019-01-14T07:58:04.591Z,44.33
2019-01-14T08:00:35.851Z,43.60
2019-01-14T08:03:07.266Z,43.60
2019-01-14T08:05:38.561Z,44.28
2019-01-14T08:08:13.925Z,42.81
2019-01-14T08:10:42.793Z,43.30
2019-01-14T08:13:22.683Z,43.30
2019-01-14T08:15:55.066Z,40.54
2019-01-14T08:18:26.379Z,40.94
2019-01-14T08:20:59.730Z,41.30
2019-01-14T08:23:40.667Z,41.30
2019-01-14T08:26:13.164Z,41.69
2019-01-14T08:28:44.622Z,40.09
2019-01-14T08:31:16.446Z,41.10
2019-01-14T08:33:47.936Z,41.10
2019-01-14T08:36:20.094Z,40.74
2019-01-14T08:38:51.665Z,40.74
2019-01-14T08:41:26.479Z,39.87
2019-01-14T08:44:01.911Z,39.87
2019-01-14T08:46:34.548Z,39.95
2019-01-14T08:49:05.952Z,39.28
2019-01-14T08:51:38.025Z,38.69
2019-01-14T08:54:09.257Z,38.69
2019-01-14T08:56:44.089Z,41.09
2019-01-14T08:59:15.425Z,41.09
2019-01-14T09:01:47.019Z,43.15
2019-01-14T09:04:22.353Z,40.00
2019-01-14T09:06:53.166Z,39.42
2019-01-14T09:09:24.518Z,39.42
2019-01-14T09:11:56.407Z,41.20
2019-01-14T09:14:27.716Z,41.20
2019-01-14T09:16:59.056Z,40.10
2019-01-14T09:19:30.527Z,39.21
2019-01-14T09:22:02.633Z,40.43
2019-01-14T09:24:35.224Z,39.42
2019-01-14T09:27:06.799Z,38.67
2019-01-14T09:29:38.150Z,38.67
2019-01-14T09:32:09.709Z,41.06
2019-01-14T09:34:41.289Z,41.06
2019-01-14T09:37:13.125Z,39.48
2019-01-14T09:39:44.795Z,40.66
2019-01-14T09:42:16.947Z,40.98
2019-01-14T09:44:48.307Z,38.65
2019-01-14T09:47:20.629Z,41.40
2019-01-14T09:49:52.496Z,41.30
2019-01-14T09:52:24.844Z,41.30
2019-01-14T09:54:56.623Z,36.89
2019-01-14T09:57:28.195Z,38.14
2019-01-14T10:00:00.290Z,38.14
2019-01-14T10:02:31.777Z,41.54
2019-01-14T10:05:03.929Z,41.54
2019-01-14T10:07:35.444Z,40.04
2019-01-14T10:10:08.598Z,40.04
2019-01-14T10:12:42.847Z,40.51
2019-01-14T10:15:17.220Z,37.66
2019-01-14T10:17:51.284Z,38.79
2019-01-14T10:20:24.897Z,37.49
2019-01-14T10:22:56.254Z,37.32
2019-01-14T10:25:28.075Z,40.25
2019-01-14T10:27:59.388Z,40.25
2019-01-14T10:41:53.053Z,37.68
2019-01-14T10:44:24.777Z,37.68
2019-01-14T10:46:56.091Z,39.97
2019-01-14T10:49:27.792Z,39.80
2019-01-14T10:51:59.013Z,39.80
2019-01-14T10:54:30.723Z,41.78
2019-01-14T10:57:03.010Z,41.98
2019-01-14T10:59:34.644Z,41.72
2019-01-14T11:02:06.244Z,41.72
2019-01-14T11:04:37.829Z,40.43
2019-01-14T11:07:09.327Z,42.63
2019-01-14T11:09:44.534Z,42.63
2019-01-14T11:12:14.007Z,39.88
2019-01-14T11:14:45.528Z,38.94
2019-01-14T11:17:17.224Z,38.94
2019-01-14T11:19:48.663Z,40.43
2019-01-14T11:22:20.290Z,40.43
2019-01-14T11:24:52.419Z,40.30
2019-01-14T11:27:24.216Z,40.54
2019-01-14T11:29:55.978Z,40.54
2019-01-14T11:32:27.458Z,41.52
2019-01-14T11:34:58.863Z,41.52
2019-01-14T11:37:30.491Z,41.25
2019-01-14T11:40:01.791Z,41.25
2019-01-14T11:42:33.608Z,41.76
2019-01-14T11:45:05.150Z,40.56
2019-01-14T11:47:36.723Z,41.62
2019-01-14T11:50:10.286Z,41.62
2019-01-14T11:52:42.114Z,40.90
2019-01-14T11:55:28.649Z,41.96
2019-01-14T11:58:00.892Z,43.39
2019-01-14T12:00:36.583Z,44.14
2019-01-14T12:03:05.659Z,44.14
2019-01-14T12:05:36.866Z,43.90
2019-01-14T12:08:08.237Z,44.38
2019-01-14T12:10:39.644Z,42.57
2019-01-14T12:13:10.928Z,42.57
2019-01-14T12:15:41.828Z,44.69
2019-01-14T12:18:13.102Z,44.51
2019-01-14T12:20:44.091Z,45.00
2019-01-14T12:23:15.512Z,45.00
2019-01-14T12:25:47.147Z,44.71
2019-01-14T12:28:19.032Z,44.41
2019-01-14T12:30:50.333Z,43.82
2019-01-14T12:33:21.713Z,43.82
2019-01-14T12:35:52.664Z,44.26
2019-01-14T12:38:24.870Z,44.39
2019-01-14T12:40:55.949Z,44.04
2019-01-14T12:43:27.308Z,44.04
2019-01-14T12:45:58.499Z,43.19
2019-01-14T12:48:30.094Z,43.05
2019-01-14T12:51:01.850Z,43.88
2019-01-14T12:53:33.296Z,43.27
2019-01-14T12:56:04.635Z,44.07
2019-01-14T12:58:36.397Z,44.62
2019-01-14T13:01:07.608Z,44.38
2019-01-14T13:03:39.041Z,43.81
2019-01-14T13:06:10.505Z,43.81
2019-01-14T13:08:42.049Z,44.18
2019-01-14T13:11:13.356Z,43.40
2019-01-14T13:13:44.493Z,43.40
2019-01-14T13:16:15.835Z,44.12
2019-01-14T13:18:47.206Z,43.63
2019-01-14T13:21:18.817Z,43.72
2019-01-14T13:23:50.415Z,44.05
2019-01-14T13:26:21.884Z,43.56
2019-01-14T13:28:53.827Z,44.08
2019-01-14T13:31:25.503Z,44.87
2019-01-14T13:33:57.125Z,44.61
2019-01-14T13:36:28.550Z,44.80
2019-01-14T13:38:59.890Z,44.80
2019-01-14T13:41:31.779Z,45.02
2019-01-14T13:44:02.969Z,45.02
2019-01-14T13:46:34.707Z,44.45
2019-01-14T13:49:06.458Z,44.45
2019-01-14T13:51:38.204Z,44.41
2019-01-14T13:54:10.069Z,44.82
2019-01-14T13:56:41.719Z,45.00
2019-01-14T13:59:13.342Z,45.00
2019-01-14T14:01:44.888Z,44.52
2019-01-14T14:04:16.578Z,44.85
2019-01-14T14:06:47.931Z,44.99
2019-01-14T14:09:19.010Z,45.26
2019-01-14T14:11:50.346Z,45.79
2019-01-14T14:14:22.287Z,45.74
2019-01-14T14:16:53.662Z,45.74
2019-01-14T14:19:25.069Z,46.42
2019-01-14T14:21:56.500Z,45.98
2019-01-14T14:24:28.310Z,45.42
2019-01-14T14:27:00.243Z,45.42
2019-01-14T14:29:31.707Z,44.63
2019-01-14T14:32:04.462Z,46.20
2019-01-14T14:34:36.436Z,46.30
2019-01-14T14:37:07.978Z,46.63
2019-01-14T14:39:39.871Z,47.49
2019-01-14T14:42:11.493Z,47.95
2019-01-14T14:44:43.061Z,47.95
2019-01-14T14:47:15.119Z,47.84
2019-01-14T14:49:46.592Z,48.84
2019-01-14T14:52:18.031Z,48.84
2019-01-14T14:54:49.865Z,48.19
2019-01-14T14:57:21.277Z,47.84
2019-01-14T14:59:52.908Z,48.39
2019-01-14T15:02:23.959Z,48.39
2019-01-14T15:04:55.168Z,47.29
2019-01-14T15:07:26.781Z,47.29
2019-01-14T15:09:59.661Z,47.19
2019-01-14T15:12:30.983Z,47.19
2019-01-14T15:15:02.400Z,47.69
2019-01-14T15:17:33.466Z,47.69
2019-01-14T15:20:06.545Z,47.62
2019-01-14T15:22:37.994Z,47.37
2019-01-14T15:25:09.207Z,46.43
2019-01-14T15:27:41.510Z,47.38
2019-01-14T15:30:19.729Z,47.38
2019-01-14T15:32:51.189Z,44.39
2019-01-14T15:35:23.140Z,46.34
2019-01-14T15:37:54.793Z,46.34
2019-01-14T15:40:26.810Z,46.10
2019-01-14T15:42:59.097Z,46.10
2019-01-14T15:45:30.476Z,45.97
2019-01-14T15:48:03.353Z,45.85
2019-01-14T15:50:34.749Z,46.29
2019-01-14T15:53:06.064Z,46.19
2019-01-14T15:55:39.109Z,46.22
2019-01-14T15:58:11.019Z,46.24
2019-01-14T16:00:42.411Z,46.24
2019-01-14T16:03:13.896Z,46.45
2019-01-14T16:05:45.550Z,46.03
2019-01-14T16:08:17.428Z,46.03
2019-01-14T16:10:48.844Z,46.18
2019-01-14T16:13:20.371Z,46.60
2019-01-14T16:15:51.675Z,46.60
2019-01-14T16:18:23.044Z,45.96
2019-01-14T16:20:54.502Z,45.96
2019-01-14T16:23:26.071Z,46.43
2019-01-14T16:25:57.536Z,46.20
2019-01-14T16:28:30.268Z,46.65
2019-01-14T16:31:01.989Z,47.04
2019-01-14T16:33:34.068Z,47.04
2019-01-14T16:36:05.523Z,47.70
2019-01-14T16:38:37.013Z,47.54
2019-01-14T16:41:08.390Z,47.46
2019-01-14T16:43:39.841Z,47.67
2019-01-14T16:46:12.294Z,48.10
2019-01-14T16:48:43.962Z,48.05
2019-01-14T16:51:15.245Z,48.05
2019-01-14T16:53:46.712Z,47.86
2019-01-14T16:56:18.511Z,48.37
2019-01-14T16:58:50.652Z,48.37
2019-01-14T17:01:22.095Z,47.61
2019-01-14T17:03:53.536Z,48.06
2019-01-14T17:06:24.802Z,47.63
2019-01-14T17:08:56.467Z,47.83
2019-01-14T17:11:28.213Z,47.65
2019-01-14T17:13:59.532Z,47.65
2019-01-14T17:16:30.736Z,47.26
2019-01-14T17:19:03.412Z,46.55
2019-01-14T17:21:34.881Z,46.55
2019-01-14T17:24:06.508Z,47.32
2019-01-14T17:26:38.008Z,47.32
2019-01-14T17:29:11.193Z,47.02
2019-01-14T17:31:44.852Z,47.04
2019-01-14T17:34:16.721Z,46.80
2019-01-14T17:36:48.509Z,47.00
2019-01-14T17:39:20.105Z,46.96
2019-01-14T17:41:52.044Z,46.96
2019-01-14T17:44:23.739Z,46.75
2019-01-14T17:46:55.295Z,47.15
2019-01-14T17:49:26.937Z,47.15
2019-01-14T17:51:58.390Z,46.93
2019-01-14T17:54:30.037Z,46.38
2019-01-14T17:57:01.216Z,46.47
2019-01-14T17:59:32.702Z,46.38
2019-01-14T18:02:04.432Z,46.38
2019-01-14T18:04:35.838Z,46.86
2019-01-14T18:07:06.974Z,46.99
2019-01-14T18:09:39.079Z,46.99
2019-01-14T18:12:10.418Z,47.27
2019-01-14T18:14:41.649Z,47.01
2019-01-14T18:17:13.047Z,46.54
2019-01-14T18:19:44.322Z,47.17
2019-01-14T18:22:15.520Z,47.17
2019-01-14T18:24:46.986Z,46.89
2019-01-14T18:27:18.594Z,47.35
2019-01-14T18:29:50.311Z,47.08
2019-01-14T18:32:21.474Z,47.24
2019-01-14T18:34:53.035Z,47.16
2019-01-14T18:37:24.182Z,46.94
2019-01-14T18:39:56.258Z,46.94
2019-01-14T18:42:27.591Z,47.46
2019-01-14T18:44:59.185Z,47.48
2019-01-14T18:47:30.785Z,47.61
2019-01-14T18:50:01.979Z,47.40
2019-01-14T18:52:33.231Z,47.03
2019-01-14T18:55:04.540Z,47.01
2019-01-14T18:57:35.718Z,46.92
2019-01-14T19:00:10.304Z,47.57
2019-01-14T19:02:42.157Z,47.66
2019-01-14T19:05:13.506Z,48.20
2019-01-14T19:07:44.990Z,48.20
2019-01-14T19:10:17.013Z,48.76
2019-01-14T19:12:48.809Z,48.76
2019-01-14T19:15:21.514Z,49.02
2019-01-14T19:17:53.998Z,48.94
2019-01-14T19:20:27.402Z,48.94
2019-01-14T19:22:59.937Z,49.48
2019-01-14T19:25:31.359Z,49.79
2019-01-14T19:28:02.607Z,49.92
2019-01-14T19:30:33.730Z,49.44
2019-01-14T19:33:05.357Z,49.97
2019-01-14T19:35:36.649Z,49.25
2019-01-14T19:38:08.023Z,49.78
2019-01-14T19:40:39.414Z,49.78
2019-01-14T19:43:11.159Z,49.88
2019-01-14T19:45:49.718Z,49.88
2019-01-14T19:48:17.821Z,48.93
2019-01-14T19:50:49.008Z,49.73
2019-01-14T19:53:20.317Z,49.38
2019-01-14T19:55:51.510Z,49.38
2019-01-14T19:58:22.903Z,49.26
2019-01-14T20:00:54.461Z,49.27
2019-01-14T20:03:25.797Z,49.23
2019-01-14T20:05:57.301Z,49.01
2019-01-14T20:08:28.760Z,49.01
2019-01-14T20:10:59.818Z,49.64
2019-01-14T20:13:31.103Z,49.54
2019-01-14T20:16:02.290Z,49.42
2019-01-14T20:18:33.583Z,49.42
2019-01-14T20:21:05.375Z,49.92
2019-01-14T20:23:37.350Z,49.92
2019-01-14T20:26:08.539Z,50.01
2019-01-14T20:28:39.930Z,49.99
2019-01-14T20:31:11.151Z,49.99
2019-01-14T20:33:42.474Z,50.23
2019-01-14T20:36:13.703Z,50.05
2019-01-14T20:38:45.249Z,50.33
2019-01-14T20:41:18.655Z,50.01
2019-01-14T20:43:49.774Z,49.97
2019-01-14T20:46:21.131Z,49.97
2019-01-14T20:48:52.978Z,49.27
2019-01-14T20:51:24.469Z,49.43
2019-01-14T20:53:55.922Z,49.79
2019-01-14T20:56:27.428Z,49.48
2019-01-14T20:58:58.792Z,49.48
2019-01-14T21:01:30.444Z,49.81
2019-01-14T21:04:03.119Z,50.24
2019-01-14T21:06:34.416Z,50.89
2019-01-14T21:09:08.011Z,50.85
2019-01-14T21:11:40.678Z,51.06
2019-01-14T21:14:12.452Z,51.18
2019-01-14T21:16:44.055Z,51.62
2019-01-14T21:19:15.792Z,51.67
2019-01-14T21:21:47.837Z,51.67
2019-01-14T21:24:19.578Z,51.76
2019-01-14T21:26:51.053Z,52.05
2019-01-14T21:29:25.984Z,51.46
2019-01-14T21:31:57.075Z,51.46
2019-01-14T21:34:28.682Z,51.57
2019-01-14T21:37:00.276Z,51.57
2019-01-14T21:39:31.561Z,51.92
2019-01-14T21:42:03.125Z,52.39
2019-01-14T21:44:34.559Z,51.85
2019-01-14T21:47:06.228Z,51.71
2019-01-14T21:49:37.983Z,51.71
2019-01-14T21:52:10.307Z,51.79
2019-01-14T21:54:41.684Z,51.48
2019-01-14T21:57:13.042Z,51.41
2019-01-14T21:59:45.032Z,51.41
2019-01-14T22:02:16.592Z,51.91
2019-01-14T22:04:47.773Z,52.14
2019-01-14T22:07:19.460Z,51.79
2019-01-14T22:09:51.308Z,51.79
2019-01-14T22:12:22.755Z,52.36
2019-01-14T22:14:54.457Z,52.73
2019-01-14T22:17:26.075Z,52.93
2019-01-14T22:19:57.739Z,53.12
2019-01-14T22:22:29.662Z,53.25
2019-01-14T22:25:01.324Z,53.03
2019-01-14T22:27:32.744Z,53.91
2019-01-14T22:30:04.697Z,53.91
2019-01-14T22:32:36.298Z,53.69
2019-01-14T22:35:11.053Z,53.69
2019-01-14T22:37:42.478Z,53.76
2019-01-14T22:40:14.725Z,53.76
2019-01-14T22:42:46.418Z,54.22
2019-01-14T22:45:18.238Z,53.58
2019-01-14T22:47:49.593Z,54.49
2019-01-14T22:50:21.478Z,54.49
2019-01-14T22:52:53.023Z,54.01
2019-01-14T22:55:24.661Z,53.99
2019-01-14T22:57:55.965Z,54.50
2019-01-14T23:00:54.526Z,54.96
2019-01-14T23:03:26.307Z,54.96
2019-01-14T23:05:57.516Z,55.00
2019-01-14T23:08:28.964Z,55.00
2019-01-14T23:11:00.122Z,55.12
2019-01-14T23:13:31.913Z,55.12
2019-01-14T23:16:03.166Z,55.18
2019-01-14T23:18:34.713Z,54.92
2019-01-14T23:21:06.034Z,54.93
2019-01-14T23:23:39.391Z,54.81
2019-01-14T23:26:12.402Z,54.69
2019-01-14T23:28:44.335Z,54.32
2019-01-14T23:31:16.165Z,54.67
2019-01-14T23:33:47.762Z,54.93
2019-01-14T23:36:19.189Z,54.93
2019-01-14T23:38:51.116Z,55.10
2019-01-14T23:41:22.426Z,54.94
2019-01-14T23:43:54.041Z,54.94
2019-01-14T23:46:25.394Z,54.53
2019-01-14T23:48:56.942Z,54.30
2019-01-14T23:51:28.259Z,54.50
2019-01-14T23:54:00.398Z,54.93
2019-01-14T23:56:33.479Z,54.93
2019-01-14T23:59:05.288Z,54.00
